createdAt,value
2022-08-12T00:02:03.304Z,2.53
2022-08-12T00:04:52.010Z,2.40
2022-08-12T00:07:38.252Z,2.53
2022-08-12T00:10:24.455Z,2.80
2022-08-12T00:13:10.171Z,2.30
2022-08-12T00:15:57.684Z,3.33
2022-08-12T00:18:42.933Z,2.60
2022-08-12T00:21:30.265Z,2.60
2022-08-12T00:24:17.044Z,2.40
2022-08-12T00:27:03.033Z,2.77
2022-08-12T00:29:48.572Z,2.53
2022-08-12T00:32:36.696Z,2.30
2022-08-12T00:35:24.424Z,2.83
2022-08-12T00:38:21.273Z,2.57
2022-08-12T00:41:07.132Z,2.50
2022-08-12T00:43:36.890Z,2.20
2022-08-12T00:46:22.119Z,2.13
2022-08-12T00:48:53.166Z,2.50
2022-08-12T00:51:21.211Z,2.27
2022-08-12T00:53:50.102Z,2.30
2022-08-12T00:56:21.092Z,2.57
2022-08-12T00:58:50.853Z,2.50
2022-08-12T01:01:19.505Z,2.50
2022-08-12T01:04:08.900Z,2.63
2022-08-12T01:06:55.888Z,2.33
2022-08-12T01:09:41.637Z,2.57
2022-08-12T01:12:11.833Z,2.33
2022-08-12T01:14:42.180Z,2.70
2022-08-12T01:17:10.579Z,2.60
2022-08-12T01:19:39.854Z,2.33
2022-08-12T01:22:23.088Z,2.40
2022-08-12T01:24:59.085Z,2.70
2022-08-12T01:27:28.585Z,3.03
2022-08-12T01:29:58.806Z,2.70
2022-08-12T01:32:29.810Z,2.70
2022-08-12T01:35:04.307Z,2.90
2022-08-12T01:37:37.349Z,2.67
2022-08-12T01:40:32.067Z,3.00
2022-08-12T01:43:04.466Z,3.10
2022-08-12T01:45:43.245Z,2.80
2022-08-12T01:48:20.381Z,2.73
2022-08-12T01:51:01.509Z,2.90
2022-08-12T01:53:50.409Z,2.60
2022-08-12T01:56:25.917Z,2.40
2022-08-12T01:59:15.755Z,2.80
2022-08-12T02:01:47.644Z,2.50
2022-08-12T02:04:42.574Z,2.63
2022-08-12T02:07:38.579Z,2.50
2022-08-12T02:10:50.720Z,2.73
2022-08-12T02:13:48.139Z,2.40
2022-08-12T02:16:31.140Z,2.67
2022-08-12T02:19:21.887Z,2.70
2022-08-12T02:21:56.186Z,2.37
2022-08-12T02:24:28.389Z,2.60
2022-08-12T02:26:59.100Z,2.30
2022-08-12T02:29:28.637Z,2.50
2022-08-12T02:31:59.192Z,2.73
2022-08-12T02:34:28.253Z,2.70
2022-08-12T02:36:57.576Z,2.57
2022-08-12T02:39:33.584Z,2.33
2022-08-12T02:42:07.142Z,2.77
2022-08-12T02:44:43.428Z,2.50
2022-08-12T02:48:00.106Z,2.60
2022-08-12T02:50:06.199Z,3.10
2022-08-12T02:52:35.763Z,2.63
2022-08-12T02:55:28.783Z,2.37
2022-08-12T02:58:04.178Z,2.90
2022-08-12T03:00:37.195Z,3.17
2022-08-12T03:03:08.245Z,2.50
2022-08-12T03:05:44.706Z,3.07
2022-08-12T03:08:25.699Z,2.77
2022-08-12T03:11:04.557Z,3.00
2022-08-12T03:13:36.138Z,2.40
2022-08-12T03:16:07.623Z,2.73
2022-08-12T03:18:36.051Z,2.93
2022-08-12T03:21:05.214Z,2.80
2022-08-12T03:23:33.044Z,2.60
2022-08-12T03:26:02.499Z,2.50
2022-08-12T03:28:51.962Z,2.60
2022-08-12T03:31:24.506Z,2.90
2022-08-12T03:34:01.881Z,3.23
2022-08-12T03:36:31.978Z,2.67
2022-08-12T03:42:00.360Z,2.93
2022-08-12T03:44:50.644Z,3.10
2022-08-12T03:47:41.265Z,2.80
2022-08-12T03:50:26.626Z,3.00
2022-08-12T03:53:12.099Z,2.90
2022-08-12T03:55:58.470Z,3.00
2022-08-12T03:58:46.445Z,3.40
2022-08-12T04:01:14.379Z,3.03
2022-08-12T04:03:55.001Z,3.20
2022-08-12T04:06:35.303Z,2.87
2022-08-12T04:09:14.585Z,3.30
2022-08-12T04:12:03.785Z,3.27
2022-08-12T04:14:34.266Z,4.10
2022-08-12T04:17:03.273Z,3.47
2022-08-12T04:19:31.682Z,3.27
2022-08-12T04:22:03.551Z,3.03
2022-08-12T04:24:34.977Z,3.20
2022-08-12T04:27:05.429Z,3.07
2022-08-12T04:30:16.850Z,2.73
2022-08-12T04:32:23.550Z,2.63
2022-08-12T04:34:52.032Z,2.43
2022-08-12T04:37:20.180Z,3.03
2022-08-12T04:39:49.234Z,2.93
2022-08-12T04:42:17.236Z,2.87
2022-08-12T04:44:46.927Z,3.10
2022-08-12T04:47:15.231Z,3.40
2022-08-12T04:49:46.400Z,2.60
2022-08-12T04:52:14.685Z,3.03
2022-08-12T04:54:44.038Z,3.10
2022-08-12T04:57:12.147Z,3.10
2022-08-12T04:59:47.732Z,2.77
2022-08-12T05:02:21.050Z,3.03
2022-08-12T05:04:52.422Z,3.00
2022-08-12T05:07:20.751Z,3.30
2022-08-12T05:10:01.824Z,3.50
2022-08-12T05:12:48.897Z,3.20
2022-08-12T05:15:27.644Z,3.00
2022-08-12T05:18:00.019Z,3.40
2022-08-12T05:20:30.818Z,3.17
2022-08-12T05:23:12.728Z,2.63
2022-08-12T05:25:43.329Z,2.80
2022-08-12T05:28:12.999Z,2.63
2022-08-12T05:30:42.521Z,3.00
2022-08-12T05:33:13.455Z,2.80
2022-08-12T05:35:43.484Z,2.50
2022-08-12T05:38:30.404Z,2.70
2022-08-12T05:40:58.774Z,2.60
2022-08-12T05:43:27.261Z,2.63
2022-08-12T05:45:55.257Z,2.60
2022-08-12T05:48:24.510Z,2.80
2022-08-12T05:50:52.965Z,2.50
2022-08-12T05:53:20.772Z,3.17
2022-08-12T05:55:48.747Z,2.80
2022-08-12T05:58:16.749Z,2.63
2022-08-12T06:00:44.703Z,2.80
2022-08-12T06:03:17.583Z,6.33
2022-08-12T06:05:55.316Z,2.80
2022-08-12T06:08:24.930Z,3.70
2022-08-12T06:10:53.729Z,2.70
2022-08-12T06:13:25.636Z,2.57
2022-08-12T06:15:56.975Z,3.47
2022-08-12T06:18:29.310Z,2.30
2022-08-12T06:21:01.666Z,3.47
2022-08-12T06:23:30.740Z,2.67
2022-08-12T06:26:03.486Z,2.30
2022-08-12T06:28:31.870Z,2.37
2022-08-12T06:31:24.672Z,2.17
2022-08-12T06:33:55.813Z,2.60
2022-08-12T06:36:33.589Z,2.30
2022-08-12T06:39:02.074Z,2.00
2022-08-12T06:42:17.733Z,2.33
2022-08-12T06:44:35.751Z,2.43
2022-08-12T06:47:03.749Z,3.00
2022-08-12T06:49:36.463Z,2.40
2022-08-12T06:52:06.408Z,2.57
2022-08-12T06:54:35.419Z,2.53
2022-08-12T06:58:01.731Z,2.40
2022-08-12T06:59:51.585Z,2.20
2022-08-12T07:02:22.731Z,2.13
2022-08-12T07:04:52.604Z,2.50
2022-08-12T07:07:21.851Z,2.30
2022-08-12T07:10:04.539Z,2.50
2022-08-12T07:12:35.064Z,2.13
2022-08-12T07:15:03.145Z,2.40
2022-08-12T07:17:36.227Z,2.47
2022-08-12T07:20:05.859Z,3.30
2022-08-12T07:22:35.193Z,2.30
2022-08-12T07:25:20.548Z,2.27
2022-08-12T07:27:50.329Z,2.43
2022-08-12T07:30:18.150Z,2.90
2022-08-12T07:32:47.482Z,2.30
2022-08-12T07:35:15.382Z,5.13
2022-08-12T07:37:45.052Z,2.47
2022-08-12T07:40:13.677Z,2.50
2022-08-12T07:42:43.598Z,2.50
2022-08-12T07:45:13.311Z,2.57
2022-08-12T07:47:43.374Z,2.47
2022-08-12T07:50:13.137Z,2.70
2022-08-12T07:52:43.290Z,2.37
2022-08-12T07:55:13.362Z,2.20
2022-08-12T07:57:54.215Z,2.47
2022-08-12T08:00:22.683Z,2.30
2022-08-12T08:02:54.288Z,2.40
2022-08-12T08:05:23.591Z,2.50
2022-08-12T08:07:53.323Z,1.80
2022-08-12T08:10:22.799Z,1.83
2022-08-12T08:12:56.251Z,2.13
2022-08-12T08:15:51.153Z,3.67
2022-08-12T08:18:25.922Z,2.00
2022-08-12T08:20:56.488Z,2.10
2022-08-12T08:23:46.287Z,1.80
2022-08-12T08:26:18.764Z,2.97
2022-08-12T08:28:46.643Z,2.17
2022-08-12T08:31:14.984Z,2.10
2022-08-12T08:34:05.250Z,1.97
2022-08-12T08:36:31.089Z,4.17
2022-08-12T08:38:59.186Z,1.90
2022-08-12T08:42:14.086Z,3.53
2022-08-12T08:44:38.042Z,2.10
2022-08-12T08:47:06.707Z,4.33
2022-08-12T08:49:37.187Z,2.03
2022-08-12T08:52:06.502Z,2.10
2022-08-12T08:54:34.453Z,2.57
2022-08-12T08:57:08.100Z,1.45
2022-08-12T08:59:37.201Z,3.80
2022-08-12T09:02:05.334Z,2.00
2022-08-12T09:05:11.740Z,1.80
2022-08-12T09:07:51.655Z,1.70
2022-08-12T09:10:15.571Z,1.55
2022-08-12T09:13:23.866Z,1.63
2022-08-12T09:16:08.634Z,1.90
2022-08-12T09:18:36.875Z,1.75
2022-08-12T09:21:09.562Z,1.83
2022-08-12T09:23:58.558Z,1.90
2022-08-12T09:26:28.296Z,1.80
2022-08-12T09:29:00.698Z,1.55
2022-08-12T09:32:07.772Z,1.70
2022-08-12T09:34:26.339Z,1.50
2022-08-12T09:37:02.459Z,1.73
2022-08-12T09:40:01.743Z,1.88
2022-08-12T09:42:52.978Z,2.17
2022-08-12T09:46:06.087Z,1.60
2022-08-12T09:48:20.023Z,1.52
2022-08-12T09:50:51.804Z,1.60
2022-08-12T09:53:36.098Z,1.40
2022-08-12T09:56:59.026Z,1.80
2022-08-12T09:58:59.696Z,1.80
2022-08-12T10:01:34.437Z,1.50
2022-08-12T10:04:05.782Z,1.52
2022-08-12T10:06:36.342Z,1.52
2022-08-12T10:09:06.827Z,1.63
2022-08-12T10:12:12.347Z,1.52
2022-08-12T10:14:50.246Z,1.60
2022-08-12T10:17:24.093Z,1.77
2022-08-12T10:19:53.140Z,1.67
2022-08-12T10:22:40.428Z,1.63
2022-08-12T10:26:34.178Z,1.48
2022-08-12T10:28:32.791Z,1.65
2022-08-12T10:31:01.424Z,1.52
2022-08-12T10:33:32.379Z,4.57
2022-08-12T10:36:01.925Z,2.28
2022-08-12T10:38:34.105Z,1.50
2022-08-12T10:41:56.742Z,1.60
2022-08-12T10:44:17.523Z,3.35
2022-08-12T10:46:45.884Z,1.70
2022-08-12T10:50:02.380Z,1.85
2022-08-12T10:52:47.166Z,2.70
2022-08-12T10:54:56.598Z,1.45
2022-08-12T10:58:13.744Z,1.73
2022-08-12T11:00:35.085Z,1.63
2022-08-12T11:04:25.215Z,1.67
2022-08-12T11:07:05.822Z,2.47
2022-08-12T11:08:47.275Z,1.45
2022-08-12T11:12:36.588Z,1.58
2022-08-12T11:14:09.876Z,1.75
2022-08-12T11:17:34.462Z,1.40
2022-08-12T11:19:45.910Z,1.40
2022-08-12T11:22:15.410Z,1.40
2022-08-12T11:24:51.467Z,1.60
2022-08-12T11:27:19.684Z,1.50
2022-08-12T11:30:05.976Z,1.42
2022-08-12T11:32:38.396Z,1.65
2022-08-12T11:35:08.301Z,1.60
2022-08-12T11:37:57.707Z,1.30
2022-08-12T11:40:26.792Z,1.30
2022-08-12T11:43:00.681Z,1.25
2022-08-12T11:45:46.860Z,1.45
2022-08-12T11:48:16.411Z,1.50
2022-08-12T11:50:44.373Z,1.60
2022-08-12T11:53:57.842Z,1.58
2022-08-12T11:56:01.609Z,1.30
2022-08-12T11:58:39.396Z,1.55
2022-08-12T12:02:00.778Z,1.50
2022-08-12T12:04:06.318Z,1.38
2022-08-12T12:06:38.222Z,2.08
2022-08-12T12:09:08.526Z,1.40
2022-08-12T12:11:48.700Z,2.20
2022-08-12T12:14:17.975Z,1.40
2022-08-12T12:16:50.028Z,2.55
2022-08-12T12:19:19.197Z,1.70
2022-08-12T12:21:49.320Z,1.42
2022-08-12T12:24:21.600Z,1.33
2022-08-12T12:27:00.262Z,1.27
2022-08-12T12:30:13.914Z,1.58
2022-08-12T12:32:18.390Z,1.25
2022-08-12T12:35:13.520Z,1.15
2022-08-12T12:38:05.025Z,1.20
2022-08-12T12:40:29.896Z,1.35
2022-08-12T12:43:01.825Z,1.50
2022-08-12T12:45:35.650Z,1.10
2022-08-12T12:48:04.993Z,1.05
2022-08-12T12:50:45.199Z,1.17
2022-08-12T12:54:07.592Z,1.30
2022-08-12T12:56:16.441Z,1.30
2022-08-12T12:58:44.743Z,1.08
2022-08-12T13:01:25.515Z,1.23
2022-08-12T13:04:02.664Z,1.25
2022-08-12T13:06:32.332Z,1.20
2022-08-12T13:09:02.577Z,1.30
2022-08-12T13:11:42.115Z,1.33
2022-08-12T13:14:29.119Z,1.40
2022-08-12T13:17:01.133Z,1.20
2022-08-12T13:19:37.702Z,1.30
2022-08-12T13:22:21.274Z,1.40
2022-08-12T13:24:57.016Z,1.42
2022-08-12T13:27:35.360Z,1.30
2022-08-12T13:30:11.592Z,1.27
2022-08-12T13:32:42.047Z,1.40
2022-08-12T13:35:20.050Z,1.50
2022-08-12T13:38:02.699Z,1.60
2022-08-12T13:40:33.946Z,1.40
2022-08-12T13:43:06.324Z,1.50
2022-08-12T13:45:35.578Z,1.50
2022-08-12T13:48:06.724Z,1.15
2022-08-12T13:50:37.395Z,1.15
2022-08-12T13:53:24.265Z,1.30
2022-08-12T13:55:59.585Z,1.33
2022-08-12T13:58:33.029Z,1.40
2022-08-12T14:01:05.428Z,1.10
2022-08-12T14:03:51.182Z,1.50
2022-08-12T14:06:20.160Z,1.20
2022-08-12T14:08:49.918Z,1.50
2022-08-12T14:11:19.349Z,1.20
2022-08-12T14:14:05.570Z,1.17
2022-08-12T14:16:49.411Z,1.48
2022-08-12T14:19:22.688Z,1.42
2022-08-12T14:22:00.827Z,1.20
2022-08-12T14:24:35.410Z,1.20
2022-08-12T14:27:09.032Z,1.20
2022-08-12T14:30:04.635Z,1.35
2022-08-12T14:32:34.836Z,1.20
2022-08-12T14:35:06.680Z,1.10
2022-08-12T14:37:56.642Z,1.25
2022-08-12T14:40:28.609Z,1.10
2022-08-12T14:42:58.240Z,1.13
2022-08-12T14:45:37.221Z,1.23
2022-08-12T14:48:14.880Z,1.02
2022-08-12T14:51:02.800Z,1.20
2022-08-12T14:59:57.829Z,1.00
2022-08-12T15:02:20.712Z,1.00
2022-08-12T15:04:59.682Z,0.98
2022-08-12T15:07:34.151Z,1.00
2022-08-12T15:10:31.150Z,0.95
2022-08-12T15:13:07.727Z,1.00
2022-08-12T15:15:43.796Z,1.00
2022-08-12T15:18:15.127Z,0.90
2022-08-12T15:20:43.045Z,0.82
2022-08-12T15:23:17.401Z,1.00
2022-08-12T15:25:47.718Z,1.00
2022-08-12T15:28:22.276Z,0.90
2022-08-12T15:30:53.100Z,1.10
2022-08-12T15:33:24.239Z,1.25
2022-08-12T15:35:53.760Z,1.10
2022-08-12T15:38:25.198Z,1.10
2022-08-12T15:40:55.001Z,1.15
2022-08-12T15:44:14.274Z,1.08
2022-08-12T15:46:15.060Z,1.02
2022-08-12T15:48:46.978Z,0.90
2022-08-12T15:51:58.692Z,1.00
2022-08-12T15:54:31.105Z,1.00
2022-08-12T15:57:03.330Z,1.10
2022-08-12T15:59:51.223Z,1.10
2022-08-12T16:02:19.821Z,1.20
2022-08-12T16:04:51.520Z,1.20
2022-08-12T16:07:29.915Z,1.38
2022-08-12T16:10:06.172Z,1.02
2022-08-12T16:12:39.501Z,1.30
2022-08-12T16:15:08.516Z,1.20
2022-08-12T16:18:08.940Z,1.33
2022-08-12T16:20:33.232Z,1.50
2022-08-12T16:23:26.368Z,3.28
2022-08-12T16:26:02.857Z,1.27
2022-08-12T16:28:32.813Z,2.00
2022-08-12T16:31:01.808Z,3.75
2022-08-12T16:33:35.907Z,2.85
2022-08-12T16:36:25.828Z,1.65
2022-08-12T16:38:53.833Z,1.40
2022-08-12T16:41:23.719Z,0.90
2022-08-12T16:43:53.457Z,1.08
2022-08-12T16:46:33.529Z,1.00
2022-08-12T16:49:04.199Z,1.70
2022-08-12T16:51:45.976Z,1.52
2022-08-12T16:54:16.565Z,1.10
2022-08-12T16:56:55.554Z,1.33
2022-08-12T16:59:31.146Z,1.00
2022-08-12T17:02:18.071Z,1.35
2022-08-12T17:05:03.287Z,1.40
2022-08-12T17:07:43.112Z,1.15
2022-08-12T17:10:18.461Z,1.25
2022-08-12T17:13:10.171Z,1.33
2022-08-12T17:15:57.366Z,1.45
2022-08-12T17:18:43.136Z,4.25
2022-08-12T17:21:15.213Z,2.75
2022-08-12T17:23:53.570Z,1.15
2022-08-12T17:26:28.249Z,1.40
2022-08-12T17:28:57.686Z,1.17
2022-08-12T17:32:01.212Z,1.20
2022-08-12T17:34:38.372Z,1.50
2022-08-12T17:37:07.320Z,1.10
2022-08-12T17:40:12.180Z,1.35
2022-08-12T17:42:35.284Z,1.10
2022-08-12T17:45:18.080Z,1.10
2022-08-12T17:48:01.929Z,0.90
2022-08-12T17:50:33.899Z,1.00
2022-08-12T17:53:02.946Z,1.10
2022-08-12T17:55:44.860Z,1.00
2022-08-12T17:58:16.404Z,1.10
2022-08-12T18:00:45.894Z,1.20
2022-08-12T18:04:13.796Z,1.13
2022-08-12T18:06:08.601Z,1.30
2022-08-12T18:08:43.319Z,1.10
2022-08-12T18:12:06.178Z,1.23
2022-08-12T18:14:29.542Z,1.20
2022-08-12T18:17:00.350Z,1.50
2022-08-12T18:20:04.274Z,1.10
2022-08-12T18:22:21.936Z,1.40
2022-08-12T18:25:04.090Z,1.08
2022-08-12T18:27:47.194Z,2.80
2022-08-12T18:30:29.444Z,1.40
2022-08-12T18:33:03.859Z,1.33
2022-08-12T18:35:47.170Z,1.60
2022-08-12T18:38:24.462Z,2.28
2022-08-12T18:41:21.698Z,1.92
2022-08-12T18:43:59.767Z,1.50
2022-08-12T18:46:34.795Z,1.30
2022-08-12T18:49:18.146Z,1.75
2022-08-12T18:51:55.662Z,1.40
2022-08-12T18:54:33.989Z,1.33
2022-08-12T18:57:16.095Z,1.70
2022-08-12T19:00:01.422Z,1.25
2022-08-12T19:02:33.803Z,1.70
2022-08-12T19:05:10.437Z,2.17
2022-08-12T19:07:50.102Z,1.80
2022-08-12T19:10:29.297Z,1.73
2022-08-12T19:13:23.017Z,1.63
2022-08-12T19:15:57.408Z,1.33
2022-08-12T19:18:30.237Z,1.70
2022-08-12T19:21:00.402Z,1.30
2022-08-12T19:23:36.007Z,1.83
2022-08-12T19:26:12.238Z,1.50
2022-08-12T19:28:41.308Z,2.00
2022-08-12T19:31:57.706Z,1.80
2022-08-12T19:37:26.685Z,1.80
2022-08-12T19:40:10.035Z,2.00
2022-08-12T19:43:00.688Z,2.00
2022-08-12T19:45:43.316Z,1.83
2022-08-12T19:48:20.698Z,1.93
2022-08-12T19:50:52.368Z,2.00
2022-08-12T19:53:23.076Z,2.50
2022-08-12T19:55:53.489Z,2.00
2022-08-12T19:58:22.566Z,1.93
2022-08-12T20:00:54.320Z,1.80
2022-08-12T20:03:38.171Z,2.00
2022-08-12T20:06:16.068Z,2.33
2022-08-12T20:08:56.773Z,2.50
2022-08-12T20:12:14.636Z,3.83
2022-08-12T20:14:14.042Z,2.60
2022-08-12T20:16:52.982Z,2.17
2022-08-12T20:19:52.731Z,2.20
2022-08-12T20:22:23.589Z,2.40
2022-08-12T20:24:55.361Z,3.07
2022-08-12T20:27:29.366Z,3.03
2022-08-12T20:30:14.109Z,2.73
2022-08-12T20:32:53.887Z,2.70
2022-08-12T20:36:06.289Z,2.83
2022-08-12T20:38:26.612Z,2.50
2022-08-12T20:40:55.546Z,2.90
2022-08-12T20:43:28.292Z,2.50
2022-08-12T20:46:00.265Z,2.70
2022-08-12T20:48:29.368Z,2.70
2022-08-12T20:51:04.275Z,2.60
2022-08-12T20:53:58.614Z,2.80
2022-08-12T20:56:30.668Z,2.60
2022-08-12T20:59:01.461Z,2.90
2022-08-12T21:01:46.902Z,2.50
2022-08-12T21:04:34.837Z,2.43
2022-08-12T21:07:09.697Z,2.50
2022-08-12T21:09:42.194Z,2.37
2022-08-12T21:12:27.564Z,2.17
2022-08-12T21:15:15.317Z,2.80
2022-08-12T21:18:08.715Z,2.70
2022-08-12T21:20:37.084Z,2.90
2022-08-12T21:23:07.588Z,2.20
2022-08-12T21:25:44.491Z,1.80
2022-08-12T21:28:14.503Z,1.87
2022-08-12T21:31:11.780Z,1.80
2022-08-12T21:33:31.717Z,2.00
2022-08-12T21:36:00.922Z,1.40
2022-08-12T21:38:40.365Z,1.60
2022-08-12T21:41:15.578Z,1.90
2022-08-12T21:43:44.667Z,1.60
2022-08-12T21:46:35.356Z,1.53
2022-08-12T21:49:05.553Z,1.70
2022-08-12T21:51:49.370Z,1.60
2022-08-12T21:54:22.562Z,1.60
2022-08-12T21:56:53.752Z,1.50
2022-08-12T21:59:22.825Z,1.40
2022-08-12T22:01:51.320Z,1.40
2022-08-12T22:04:37.057Z,1.50
2022-08-12T22:07:06.175Z,2.10
2022-08-12T22:09:42.573Z,1.27
2022-08-12T22:12:29.554Z,1.80
2022-08-12T22:14:57.499Z,1.27
2022-08-12T22:17:49.533Z,1.60
2022-08-12T22:20:22.019Z,2.00
2022-08-12T22:22:53.851Z,1.30
2022-08-12T22:25:28.577Z,1.60
2022-08-12T22:28:14.924Z,1.53
2022-08-12T22:31:01.130Z,1.50
2022-08-12T22:33:28.936Z,1.40
2022-08-12T22:35:59.946Z,1.50
2022-08-12T22:38:29.691Z,1.50
2022-08-12T22:41:01.862Z,1.80
2022-08-12T22:43:58.917Z,1.50
2022-08-12T22:46:52.838Z,1.70
2022-08-12T22:49:36.442Z,1.67
2022-08-12T22:52:14.345Z,1.60
2022-08-12T22:55:03.199Z,2.70
2022-08-12T22:57:49.401Z,2.33
2022-08-12T23:00:24.204Z,2.10
2022-08-12T23:02:58.393Z,2.47
2022-08-12T23:05:36.791Z,2.40
2022-08-12T23:08:22.181Z,2.13
2022-08-12T23:10:50.473Z,2.50
2022-08-12T23:13:48.696Z,1.90
2022-08-12T23:16:29.437Z,2.07
2022-08-12T23:19:01.861Z,2.10
2022-08-12T23:22:03.227Z,2.03
2022-08-12T23:24:29.204Z,1.70
2022-08-12T23:27:15.295Z,1.57
2022-08-12T23:30:17.435Z,1.57
2022-08-12T23:32:35.929Z,2.20
2022-08-12T23:35:06.454Z,1.57
2022-08-12T23:37:47.425Z,1.67
2022-08-12T23:40:24.765Z,1.90
2022-08-12T23:42:55.119Z,1.60
2022-08-12T23:45:31.208Z,1.40
2022-08-12T23:48:02.834Z,1.63
2022-08-12T23:50:34.336Z,1.57
2022-08-12T23:53:05.317Z,1.50
2022-08-12T23:55:38.225Z,1.70
2022-08-12T23:58:22.479Z,1.70
